Aba, Nigeria
Current Conditions -  °F | °C
As of 3:00 PM on Thursday 30 Oct 2014 (Local Time) from FKKD Reporting Station
Broken Clouds Broken Clouds  
Wind Chill: 82°   Ceiling: 1300
Heat Index: 91°   Visibility: 6mi
Dew Point: 77°   Wind: 7mph
Humidity: 84%   Direction: 260°W
Pressure: 29.8"   Gusts: NA
Location:  5.1°N, 7.35°E
Report Text: FKKD 301400Z 26006KT 9999 BKN013 FEW016CB 28/25 Q1009 NOSIG
Loading
Personal Weather Stations






























Interactive Weather Map
Tropical Storm Tracking
New forecast layout! Learn more

10-Day Weather Forecast

Advertisements
Track Severe Weather on mobile